Terminal Aerodrome Forecast
Issued by NWS Twin Cities, MN

Home | Current Version | Previous Version | Text Only | Print | Product List | Glossary On
Versions: 1 2 3 4 5 6 7 8 9 10 11 12 13 14
000
FTUS43 KMPX 262342
TAFEAU
TAF
KEAU 262342Z 2700/2724 33011G20KT P6SM FEW070
     FM270200 32006KT P6SM SKC
     FM271000 22007KT P6SM BKN110
     FM271500 28009KT P6SM BKN080
     FM271700 30016G27KT P6SM BKN070
     FM272100 33018G29KT P6SM BKN040=

USA.gov is the U.S. government's official web portal to all federal, state and local government web resources and services.